createdAt,value
2023-01-29T00:03:37.038Z,77.05
2023-01-29T00:08:40.867Z,77.16
2023-01-29T00:13:44.532Z,77.25
2023-01-29T00:18:48.248Z,77.28
2023-01-29T00:37:50.700Z,77.00
2023-01-29T00:43:44.182Z,77.04
2023-01-29T00:48:48.142Z,77.09
2023-01-29T01:02:04.342Z,77.10
2023-01-29T01:07:08.730Z,77.29
2023-01-29T01:12:38.479Z,77.04
2023-01-29T01:17:42.149Z,77.16
2023-01-29T01:23:10.889Z,77.04
2023-01-29T01:29:10.929Z,77.24
2023-01-29T01:41:59.765Z,77.64
2023-01-29T01:48:25.231Z,78.03
2023-01-29T02:00:49.109Z,79.01
2023-01-29T02:06:16.065Z,79.31
2023-01-29T02:11:21.175Z,79.39
2023-01-29T02:16:50.792Z,79.48
2023-01-29T02:22:47.771Z,79.79
2023-01-29T02:35:27.584Z,80.21
2023-01-29T02:40:54.567Z,80.40
2023-01-29T02:46:20.301Z,80.61
2023-01-29T02:52:02.823Z,80.85
2023-01-29T02:58:23.407Z,81.11
2023-01-29T03:03:39.983Z,81.31
2023-01-29T03:09:08.358Z,81.54
2023-01-29T03:14:57.061Z,81.79
2023-01-29T03:20:04.053Z,81.82
2023-01-29T03:33:18.894Z,82.17
2023-01-29T03:38:22.620Z,82.26
2023-01-29T03:44:19.600Z,82.36
2023-01-29T03:50:00.699Z,82.45
2023-01-29T03:55:50.079Z,82.64
2023-01-29T04:01:02.857Z,82.79
2023-01-29T04:07:01.138Z,82.82
2023-01-29T04:12:15.185Z,82.79
2023-01-29T04:17:33.447Z,82.89
2023-01-29T04:22:40.036Z,83.13
2023-01-29T04:28:28.832Z,83.36
2023-01-29T04:34:04.399Z,83.55
2023-01-29T04:39:41.387Z,83.79
2023-01-29T04:45:33.961Z,83.86
2023-01-29T04:51:25.434Z,83.84
2023-01-29T04:57:04.251Z,84.08
2023-01-29T05:02:12.685Z,84.27
2023-01-29T05:07:19.264Z,84.31
2023-01-29T05:19:43.453Z,84.31
2023-01-29T05:25:43.996Z,84.24
2023-01-29T05:30:55.137Z,84.46
2023-01-29T05:36:55.427Z,84.51
2023-01-29T05:42:05.059Z,84.43
2023-01-29T05:47:08.720Z,84.44
2023-01-29T05:52:37.820Z,84.35
2023-01-29T05:58:20.258Z,84.45
2023-01-29T06:03:24.039Z,84.62
2023-01-29T06:08:46.560Z,84.67
2023-01-29T06:14:47.934Z,84.66
2023-01-29T06:19:55.016Z,84.64
2023-01-29T06:32:04.038Z,84.70
2023-01-29T06:38:02.831Z,84.59
2023-01-29T06:43:06.656Z,84.53
2023-01-29T06:48:12.090Z,84.51
2023-01-29T06:53:19.194Z,84.39
2023-01-29T06:58:26.526Z,84.35
2023-01-29T07:03:32.117Z,84.36
2023-01-29T07:08:41.484Z,84.38
2023-01-29T07:13:49.938Z,84.35
2023-01-29T07:19:18.800Z,84.30
2023-01-29T07:25:24.016Z,84.18
2023-01-29T07:30:28.457Z,84.25
2023-01-29T07:35:36.949Z,84.17
2023-01-29T07:47:44.057Z,84.17
2023-01-29T07:53:26.108Z,84.26
2023-01-29T07:59:45.723Z,84.25
2023-01-29T08:04:49.490Z,84.07
2023-01-29T08:09:53.989Z,83.85
2023-01-29T08:14:57.904Z,83.80
2023-01-29T08:24:41.549Z,83.49
2023-01-29T08:29:53.332Z,83.49
2023-01-29T08:49:02.679Z,83.81
2023-01-29T09:05:50.914Z,83.36
2023-01-29T09:10:54.857Z,83.32
2023-01-29T09:16:03.514Z,83.15
2023-01-29T09:29:18.219Z,83.17
2023-01-29T09:34:21.841Z,83.26
2023-01-29T09:47:56.130Z,83.40
2023-01-29T09:53:29.865Z,83.58
2023-01-29T09:59:01.644Z,83.61
2023-01-29T10:04:54.828Z,83.39
2023-01-29T10:11:09.296Z,83.53
2023-01-29T10:17:00.721Z,83.62
2023-01-29T10:23:05.437Z,83.47
2023-01-29T10:35:39.787Z,84.17
2023-01-29T10:41:19.674Z,84.04
2023-01-29T10:47:01.711Z,83.86
2023-01-29T10:52:26.439Z,83.82
2023-01-29T10:58:08.456Z,83.86
2023-01-29T11:03:29.540Z,83.67
2023-01-29T11:08:58.269Z,83.50
2023-01-29T11:14:12.481Z,83.53
2023-01-29T11:19:17.494Z,83.53
2023-01-29T11:24:21.979Z,83.56
2023-01-29T11:29:48.705Z,83.44
2023-01-29T11:43:14.376Z,83.40
2023-01-29T11:48:27.515Z,83.42
2023-01-29T12:10:41.871Z,83.13
2023-01-29T12:24:23.071Z,83.25
2023-01-29T12:29:57.351Z,83.31
2023-01-29T12:42:18.390Z,83.54
2023-01-29T12:48:02.253Z,83.58
2023-01-29T12:53:55.035Z,83.38
2023-01-29T13:07:46.485Z,83.19
2023-01-29T13:27:48.059Z,83.34
2023-01-29T13:34:11.597Z,83.40
2023-01-29T13:39:29.899Z,83.32
2023-01-29T13:44:39.492Z,83.39
2023-01-29T13:49:57.107Z,83.49
2023-01-29T13:55:09.711Z,83.61
2023-01-29T14:00:38.821Z,83.75
2023-01-29T14:06:39.746Z,83.86
2023-01-29T14:12:39.831Z,84.01
2023-01-29T14:18:19.011Z,84.09
2023-01-29T14:23:50.271Z,84.32
2023-01-29T14:29:25.506Z,84.52
2023-01-29T14:34:52.024Z,84.72
2023-01-29T14:40:55.712Z,84.68
2023-01-29T15:02:38.398Z,85.04
2023-01-29T15:07:55.397Z,85.19
2023-01-29T15:13:56.166Z,85.20
2023-01-29T15:19:26.906Z,85.21
2023-01-29T15:31:21.300Z,85.22
2023-01-29T15:36:30.307Z,85.21
2023-01-29T15:51:58.276Z,85.38
2023-01-29T15:57:06.721Z,85.25
2023-01-29T16:02:35.396Z,85.17
2023-01-29T16:07:40.403Z,85.04
2023-01-29T16:12:47.600Z,84.99
2023-01-29T16:17:55.148Z,85.03
2023-01-29T16:23:00.984Z,85.00
2023-01-29T16:28:07.754Z,85.10
2023-01-29T16:33:17.745Z,85.10
2023-01-29T16:45:43.882Z,85.04
2023-01-29T16:51:13.929Z,85.24
2023-01-29T16:56:45.708Z,85.32
2023-01-29T17:01:50.272Z,85.29
2023-01-29T17:07:02.456Z,85.39
2023-01-29T17:12:17.027Z,85.43
2023-01-29T17:17:20.512Z,85.41
2023-01-29T17:22:23.969Z,85.46
2023-01-29T17:34:35.003Z,85.59
2023-01-29T17:39:38.980Z,85.61
2023-01-29T17:44:44.186Z,85.50
2023-01-29T17:51:05.684Z,85.54
2023-01-29T17:56:35.340Z,85.71
2023-01-29T18:02:29.687Z,85.76
2023-01-29T18:07:33.845Z,85.95
2023-01-29T18:12:57.144Z,86.18
2023-01-29T18:18:01.481Z,86.12
2023-01-29T18:45:24.278Z,86.39
2023-01-29T19:05:30.349Z,87.00
2023-01-29T19:10:36.041Z,87.10
2023-01-29T19:29:56.601Z,87.07
2023-01-29T19:35:00.459Z,87.07
2023-01-29T19:40:07.162Z,87.03
2023-01-29T19:45:12.595Z,86.83
2023-01-29T19:57:33.355Z,86.86
2023-01-29T20:02:40.848Z,86.88
2023-01-29T20:08:43.252Z,87.18
2023-01-29T20:13:53.349Z,87.50
2023-01-29T20:19:14.398Z,87.53
2023-01-29T20:24:24.438Z,87.47
2023-01-29T20:29:31.365Z,87.54
2023-01-29T20:34:38.439Z,87.62
2023-01-29T20:39:45.880Z,87.61
2023-01-29T20:44:53.045Z,87.68
2023-01-29T20:50:00.142Z,87.75
2023-01-29T20:55:57.502Z,87.82
2023-01-29T21:01:53.592Z,87.79
2023-01-29T21:14:19.602Z,87.57
2023-01-29T21:19:23.302Z,87.43
2023-01-29T21:28:54.502Z,87.28
2023-01-29T21:33:58.732Z,87.10
2023-01-29T21:39:25.407Z,87.00
2023-01-29T21:44:33.514Z,86.82
2023-01-29T21:49:46.124Z,86.77
2023-01-29T21:54:54.351Z,86.68
2023-01-29T22:00:02.124Z,86.65
2023-01-29T22:05:18.816Z,86.61
2023-01-29T22:10:24.556Z,86.53
2023-01-29T22:15:30.973Z,86.54
2023-01-29T22:20:37.492Z,86.68
2023-01-29T22:25:41.433Z,86.57
2023-01-29T22:30:47.343Z,86.63
2023-01-29T22:35:54.889Z,86.58
2023-01-29T22:41:01.483Z,86.44
2023-01-29T22:46:09.442Z,86.42
2023-01-29T22:51:14.155Z,86.36
2023-01-29T22:56:20.920Z,86.24
2023-01-29T23:01:32.198Z,86.21
2023-01-29T23:06:35.986Z,86.28
2023-01-29T23:11:40.109Z,86.30
2023-01-29T23:16:43.851Z,86.21
2023-01-29T23:21:47.900Z,86.10
2023-01-29T23:27:10.078Z,86.13
2023-01-29T23:32:18.524Z,85.96
2023-01-29T23:37:22.160Z,85.89
2023-01-29T23:42:26.112Z,85.90
2023-01-29T23:47:29.864Z,85.94
2023-01-29T23:52:33.435Z,86.10
2023-01-29T23:57:37.161Z,86.22
